sensor_id;sensor_type;location;lat;lon;timestamp;P1;durP1;ratioP1;P2;durP2;ratioP2
55758;SDS011;41678;52.126;20.664;2023-09-08T00:04:21;10.23;;;5.97;;
55758;SDS011;41678;52.126;20.664;2023-09-08T00:09:41;11.80;;;6.32;;
55758;SDS011;41678;52.126;20.664;2023-09-08T00:15:00;12.70;;;6.22;;
55758;SDS011;41678;52.126;20.664;2023-09-08T00:20:20;12.93;;;6.40;;
55758;SDS011;41678;52.126;20.664;2023-09-08T00:25:39;11.00;;;6.22;;
55758;SDS011;41678;52.126;20.664;2023-09-08T00:30:59;13.05;;;7.18;;
55758;SDS011;41678;52.126;20.664;2023-09-08T00:36:20;13.10;;;6.20;;
55758;SDS011;41678;52.126;20.664;2023-09-08T00:41:40;10.73;;;5.90;;
55758;SDS011;41678;52.126;20.664;2023-09-08T00:47:00;14.77;;;6.32;;
55758;SDS011;41678;52.126;20.664;2023-09-08T00:52:19;14.57;;;6.30;;
55758;SDS011;41678;52.126;20.664;2023-09-08T00:57:39;12.85;;;6.18;;
55758;SDS011;41678;52.126;20.664;2023-09-08T01:02:59;10.35;;;5.85;;
55758;SDS011;41678;52.126;20.664;2023-09-08T01:08:19;11.48;;;6.53;;
55758;SDS011;41678;52.126;20.664;2023-09-08T01:13:40;14.07;;;6.20;;
55758;SDS011;41678;52.126;20.664;2023-09-08T01:19:02;12.40;;;7.35;;
55758;SDS011;41678;52.126;20.664;2023-09-08T01:30:18;13.68;;;7.70;;
55758;SDS011;41678;52.126;20.664;2023-09-08T01:35:40;13.27;;;7.38;;
55758;SDS011;41678;52.126;20.664;2023-09-08T01:41:00;12.82;;;7.18;;
55758;SDS011;41678;52.126;20.664;2023-09-08T01:46:21;16.00;;;7.25;;
55758;SDS011;41678;52.126;20.664;2023-09-08T01:51:40;12.23;;;7.40;;
55758;SDS011;41678;52.126;20.664;2023-09-08T01:57:00;13.63;;;6.97;;
55758;SDS011;41678;52.126;20.664;2023-09-08T02:02:19;13.95;;;7.00;;
55758;SDS011;41678;52.126;20.664;2023-09-08T02:07:39;15.30;;;7.50;;
55758;SDS011;41678;52.126;20.664;2023-09-08T02:12:58;14.48;;;7.82;;
55758;SDS011;41678;52.126;20.664;2023-09-08T02:18:18;13.50;;;6.40;;
55758;SDS011;41678;52.126;20.664;2023-09-08T02:23:37;14.07;;;7.20;;
55758;SDS011;41678;52.126;20.664;2023-09-08T02:28:57;13.20;;;7.07;;
55758;SDS011;41678;52.126;20.664;2023-09-08T02:34:17;18.15;;;8.35;;
55758;SDS011;41678;52.126;20.664;2023-09-08T02:39:37;14.82;;;8.15;;
55758;SDS011;41678;52.126;20.664;2023-09-08T02:44:57;17.77;;;7.90;;
55758;SDS011;41678;52.126;20.664;2023-09-08T02:50:17;21.55;;;9.27;;
55758;SDS011;41678;52.126;20.664;2023-09-08T02:55:36;18.02;;;9.00;;
55758;SDS011;41678;52.126;20.664;2023-09-08T03:00:56;15.18;;;8.45;;
55758;SDS011;41678;52.126;20.664;2023-09-08T03:06:18;17.55;;;9.82;;
55758;SDS011;41678;52.126;20.664;2023-09-08T03:11:39;14.35;;;7.93;;
55758;SDS011;41678;52.126;20.664;2023-09-08T03:17:00;20.30;;;8.57;;
55758;SDS011;41678;52.126;20.664;2023-09-08T03:22:19;18.60;;;9.15;;
55758;SDS011;41678;52.126;20.664;2023-09-08T03:27:39;14.02;;;8.07;;
55758;SDS011;41678;52.126;20.664;2023-09-08T03:32:59;20.33;;;8.60;;
55758;SDS011;41678;52.126;20.664;2023-09-08T03:38:18;15.88;;;8.55;;
55758;SDS011;41678;52.126;20.664;2023-09-08T03:43:38;15.43;;;9.05;;
55758;SDS011;41678;52.126;20.664;2023-09-08T03:48:58;16.02;;;8.07;;
55758;SDS011;41678;52.126;20.664;2023-09-08T03:59:39;19.30;;;8.32;;
55758;SDS011;41678;52.126;20.664;2023-09-08T04:04:59;14.82;;;8.43;;
55758;SDS011;41678;52.126;20.664;2023-09-08T04:10:19;14.25;;;7.90;;
55758;SDS011;41678;52.126;20.664;2023-09-08T04:15:38;15.93;;;8.15;;
55758;SDS011;41678;52.126;20.664;2023-09-08T04:20:58;19.85;;;8.55;;
55758;SDS011;41678;52.126;20.664;2023-09-08T04:26:17;17.48;;;9.18;;
55758;SDS011;41678;52.126;20.664;2023-09-08T04:31:37;19.73;;;8.82;;
55758;SDS011;41678;52.126;20.664;2023-09-08T04:36:57;21.90;;;8.80;;
55758;SDS011;41678;52.126;20.664;2023-09-08T04:42:17;14.93;;;8.65;;
55758;SDS011;41678;52.126;20.664;2023-09-08T04:47:37;17.95;;;9.27;;
55758;SDS011;41678;52.126;20.664;2023-09-08T04:52:58;19.75;;;9.38;;
55758;SDS011;41678;52.126;20.664;2023-09-08T04:58:18;18.50;;;9.43;;
55758;SDS011;41678;52.126;20.664;2023-09-08T05:03:38;16.23;;;9.15;;
55758;SDS011;41678;52.126;20.664;2023-09-08T05:14:21;16.92;;;9.75;;
55758;SDS011;41678;52.126;20.664;2023-09-08T05:19:41;20.60;;;9.88;;
55758;SDS011;41678;52.126;20.664;2023-09-08T05:25:01;16.90;;;8.68;;
55758;SDS011;41678;52.126;20.664;2023-09-08T05:30:21;18.75;;;9.00;;
55758;SDS011;41678;52.126;20.664;2023-09-08T05:35:41;14.82;;;8.57;;
55758;SDS011;41678;52.126;20.664;2023-09-08T05:41:02;16.92;;;8.45;;
55758;SDS011;41678;52.126;20.664;2023-09-08T05:46:23;19.17;;;8.03;;
55758;SDS011;41678;52.126;20.664;2023-09-08T05:51:43;18.83;;;8.95;;
55758;SDS011;41678;52.126;20.664;2023-09-08T05:57:05;18.20;;;8.27;;
55758;SDS011;41678;52.126;20.664;2023-09-08T06:02:26;16.25;;;8.30;;
55758;SDS011;41678;52.126;20.664;2023-09-08T06:07:46;16.25;;;8.75;;
55758;SDS011;41678;52.126;20.664;2023-09-08T06:13:06;14.73;;;8.15;;
55758;SDS011;41678;52.126;20.664;2023-09-08T06:18:27;21.67;;;9.73;;
55758;SDS011;41678;52.126;20.664;2023-09-08T06:23:50;16.83;;;8.32;;
55758;SDS011;41678;52.126;20.664;2023-09-08T06:29:10;19.83;;;7.95;;
55758;SDS011;41678;52.126;20.664;2023-09-08T06:34:30;15.80;;;7.68;;
55758;SDS011;41678;52.126;20.664;2023-09-08T06:39:50;15.82;;;7.68;;
55758;SDS011;41678;52.126;20.664;2023-09-08T06:50:33;13.60;;;7.68;;
55758;SDS011;41678;52.126;20.664;2023-09-08T06:55:53;18.63;;;7.22;;
55758;SDS011;41678;52.126;20.664;2023-09-08T07:01:13;19.63;;;8.95;;
55758;SDS011;41678;52.126;20.664;2023-09-08T07:06:33;13.20;;;7.30;;
55758;SDS011;41678;52.126;20.664;2023-09-08T07:11:55;16.55;;;7.65;;
55758;SDS011;41678;52.126;20.664;2023-09-08T07:17:15;12.98;;;7.63;;
55758;SDS011;41678;52.126;20.664;2023-09-08T07:22:36;14.13;;;7.43;;
55758;SDS011;41678;52.126;20.664;2023-09-08T07:27:56;17.10;;;6.90;;
55758;SDS011;41678;52.126;20.664;2023-09-08T07:33:17;15.93;;;6.65;;
55758;SDS011;41678;52.126;20.664;2023-09-08T07:38:38;21.53;;;7.77;;
55758;SDS011;41678;52.126;20.664;2023-09-08T07:44:00;12.82;;;6.60;;
55758;SDS011;41678;52.126;20.664;2023-09-08T07:49:20;14.18;;;6.20;;
55758;SDS011;41678;52.126;20.664;2023-09-08T07:54:39;12.18;;;6.50;;
55758;SDS011;41678;52.126;20.664;2023-09-08T07:59:58;12.98;;;6.20;;
55758;SDS011;41678;52.126;20.664;2023-09-08T08:05:18;11.68;;;6.13;;
55758;SDS011;41678;52.126;20.664;2023-09-08T08:10:40;15.98;;;5.80;;
55758;SDS011;41678;52.126;20.664;2023-09-08T08:16:00;10.35;;;5.65;;
55758;SDS011;41678;52.126;20.664;2023-09-08T08:21:20;15.23;;;5.93;;
55758;SDS011;41678;52.126;20.664;2023-09-08T08:26:42;15.30;;;5.57;;
55758;SDS011;41678;52.126;20.664;2023-09-08T08:32:01;18.85;;;4.97;;
55758;SDS011;41678;52.126;20.664;2023-09-08T08:37:21;9.98;;;5.38;;
55758;SDS011;41678;52.126;20.664;2023-09-08T08:42:41;12.75;;;6.00;;
55758;SDS011;41678;52.126;20.664;2023-09-08T08:48:02;16.67;;;5.53;;
55758;SDS011;41678;52.126;20.664;2023-09-08T08:53:23;9.65;;;5.57;;
55758;SDS011;41678;52.126;20.664;2023-09-08T08:58:44;11.87;;;5.80;;
55758;SDS011;41678;52.126;20.664;2023-09-08T09:04:04;11.10;;;5.20;;
55758;SDS011;41678;52.126;20.664;2023-09-08T09:09:25;19.02;;;5.82;;
55758;SDS011;41678;52.126;20.664;2023-09-08T09:14:47;10.45;;;5.53;;
55758;SDS011;41678;52.126;20.664;2023-09-08T09:25:37;19.42;;;4.78;;
55758;SDS011;41678;52.126;20.664;2023-09-08T09:30:57;15.00;;;5.43;;
55758;SDS011;41678;52.126;20.664;2023-09-08T09:36:21;11.48;;;5.43;;
55758;SDS011;41678;52.126;20.664;2023-09-08T09:41:41;13.05;;;5.90;;
55758;SDS011;41678;52.126;20.664;2023-09-08T09:47:00;14.30;;;5.43;;
55758;SDS011;41678;52.126;20.664;2023-09-08T09:52:21;18.93;;;6.10;;
55758;SDS011;41678;52.126;20.664;2023-09-08T09:57:42;13.25;;;5.53;;
55758;SDS011;41678;52.126;20.664;2023-09-08T10:03:03;9.95;;;5.35;;
55758;SDS011;41678;52.126;20.664;2023-09-08T10:08:23;12.27;;;5.22;;
55758;SDS011;41678;52.126;20.664;2023-09-08T10:13:45;10.90;;;5.67;;
55758;SDS011;41678;52.126;20.664;2023-09-08T10:19:09;13.23;;;5.20;;
55758;SDS011;41678;52.126;20.664;2023-09-08T10:24:33;11.00;;;5.55;;
55758;SDS011;41678;52.126;20.664;2023-09-08T10:29:53;17.20;;;5.65;;
55758;SDS011;41678;52.126;20.664;2023-09-08T10:35:14;17.13;;;6.00;;
55758;SDS011;41678;52.126;20.664;2023-09-08T10:40:33;11.43;;;6.05;;
55758;SDS011;41678;52.126;20.664;2023-09-08T10:45:53;12.20;;;5.90;;
55758;SDS011;41678;52.126;20.664;2023-09-08T10:51:13;8.73;;;5.13;;
55758;SDS011;41678;52.126;20.664;2023-09-08T10:56:53;13.23;;;5.20;;
55758;SDS011;41678;52.126;20.664;2023-09-08T11:02:32;9.55;;;5.55;;
55758;SDS011;41678;52.126;20.664;2023-09-08T11:07:54;13.85;;;5.60;;
55758;SDS011;41678;52.126;20.664;2023-09-08T11:13:13;12.63;;;5.05;;
55758;SDS011;41678;52.126;20.664;2023-09-08T11:18:33;12.23;;;5.57;;
55758;SDS011;41678;52.126;20.664;2023-09-08T11:29:13;9.93;;;5.82;;
55758;SDS011;41678;52.126;20.664;2023-09-08T11:34:32;9.38;;;5.03;;
55758;SDS011;41678;52.126;20.664;2023-09-08T11:39:53;12.82;;;5.03;;
55758;SDS011;41678;52.126;20.664;2023-09-08T11:45:15;15.13;;;6.05;;
55758;SDS011;41678;52.126;20.664;2023-09-08T11:50:42;14.25;;;5.25;;
55758;SDS011;41678;52.126;20.664;2023-09-08T11:56:04;10.48;;;5.60;;
55758;SDS011;41678;52.126;20.664;2023-09-08T12:01:25;9.73;;;5.57;;
55758;SDS011;41678;52.126;20.664;2023-09-08T12:06:45;11.50;;;5.25;;
55758;SDS011;41678;52.126;20.664;2023-09-08T12:17:30;10.43;;;5.63;;
55758;SDS011;41678;52.126;20.664;2023-09-08T12:22:50;16.67;;;5.55;;
55758;SDS011;41678;52.126;20.664;2023-09-08T12:28:10;8.40;;;4.93;;
55758;SDS011;41678;52.126;20.664;2023-09-08T12:33:29;11.43;;;5.38;;
55758;SDS011;41678;52.126;20.664;2023-09-08T12:38:52;9.60;;;5.60;;
55758;SDS011;41678;52.126;20.664;2023-09-08T12:44:12;10.40;;;5.15;;
55758;SDS011;41678;52.126;20.664;2023-09-08T12:49:31;7.93;;;4.75;;
55758;SDS011;41678;52.126;20.664;2023-09-08T12:54:51;11.77;;;5.43;;
55758;SDS011;41678;52.126;20.664;2023-09-08T13:00:11;11.82;;;5.47;;
55758;SDS011;41678;52.126;20.664;2023-09-08T13:05:31;12.25;;;5.13;;
55758;SDS011;41678;52.126;20.664;2023-09-08T13:10:51;11.10;;;5.15;;
55758;SDS011;41678;52.126;20.664;2023-09-08T13:16:11;11.25;;;5.03;;
55758;SDS011;41678;52.126;20.664;2023-09-08T13:21:30;13.20;;;5.55;;
55758;SDS011;41678;52.126;20.664;2023-09-08T13:26:50;14.10;;;5.28;;
55758;SDS011;41678;52.126;20.664;2023-09-08T13:32:10;11.80;;;5.40;;
55758;SDS011;41678;52.126;20.664;2023-09-08T13:37:29;11.07;;;5.50;;
55758;SDS011;41678;52.126;20.664;2023-09-08T13:42:50;18.27;;;5.50;;
55758;SDS011;41678;52.126;20.664;2023-09-08T13:48:09;17.63;;;6.38;;
55758;SDS011;41678;52.126;20.664;2023-09-08T13:53:29;13.60;;;5.43;;
55758;SDS011;41678;52.126;20.664;2023-09-08T13:58:52;11.38;;;5.00;;
55758;SDS011;41678;52.126;20.664;2023-09-08T14:04:12;8.00;;;5.03;;
55758;SDS011;41678;52.126;20.664;2023-09-08T14:09:31;15.23;;;6.05;;
55758;SDS011;41678;52.126;20.664;2023-09-08T14:14:50;8.10;;;4.40;;
55758;SDS011;41678;52.126;20.664;2023-09-08T14:20:10;16.35;;;5.75;;
55758;SDS011;41678;52.126;20.664;2023-09-08T14:25:30;12.53;;;5.10;;
55758;SDS011;41678;52.126;20.664;2023-09-08T14:30:50;9.88;;;5.32;;
55758;SDS011;41678;52.126;20.664;2023-09-08T14:36:10;15.67;;;5.63;;
55758;SDS011;41678;52.126;20.664;2023-09-08T14:41:29;10.68;;;5.30;;
55758;SDS011;41678;52.126;20.664;2023-09-08T14:46:50;15.43;;;4.93;;
55758;SDS011;41678;52.126;20.664;2023-09-08T14:57:29;8.40;;;4.95;;
55758;SDS011;41678;52.126;20.664;2023-09-08T15:02:48;9.38;;;4.65;;
55758;SDS011;41678;52.126;20.664;2023-09-08T15:08:08;10.30;;;4.93;;
55758;SDS011;41678;52.126;20.664;2023-09-08T15:13:28;14.63;;;5.13;;
55758;SDS011;41678;52.126;20.664;2023-09-08T15:18:47;16.45;;;4.80;;
55758;SDS011;41678;52.126;20.664;2023-09-08T15:24:08;10.98;;;5.53;;
55758;SDS011;41678;52.126;20.664;2023-09-08T15:29:28;15.70;;;5.38;;
55758;SDS011;41678;52.126;20.664;2023-09-08T15:34:48;9.30;;;5.15;;
55758;SDS011;41678;52.126;20.664;2023-09-08T15:40:09;13.82;;;5.63;;
55758;SDS011;41678;52.126;20.664;2023-09-08T15:45:33;9.90;;;5.55;;
55758;SDS011;41678;52.126;20.664;2023-09-08T15:51:01;16.10;;;5.43;;
55758;SDS011;41678;52.126;20.664;2023-09-08T15:56:21;17.95;;;5.38;;
55758;SDS011;41678;52.126;20.664;2023-09-08T16:01:41;12.35;;;4.97;;
55758;SDS011;41678;52.126;20.664;2023-09-08T16:07:01;13.52;;;5.35;;
55758;SDS011;41678;52.126;20.664;2023-09-08T16:12:20;19.67;;;5.80;;
55758;SDS011;41678;52.126;20.664;2023-09-08T16:17:39;14.05;;;5.35;;
55758;SDS011;41678;52.126;20.664;2023-09-08T16:22:59;13.43;;;5.63;;
55758;SDS011;41678;52.126;20.664;2023-09-08T16:28:18;15.70;;;6.70;;
55758;SDS011;41678;52.126;20.664;2023-09-08T16:33:37;19.48;;;5.65;;
55758;SDS011;41678;52.126;20.664;2023-09-08T16:38:57;15.97;;;6.03;;
55758;SDS011;41678;52.126;20.664;2023-09-08T16:44:17;11.70;;;5.93;;
55758;SDS011;41678;52.126;20.664;2023-09-08T16:49:36;16.92;;;6.30;;
55758;SDS011;41678;52.126;20.664;2023-09-08T16:54:56;13.40;;;6.38;;
55758;SDS011;41678;52.126;20.664;2023-09-08T17:00:16;19.75;;;6.97;;
55758;SDS011;41678;52.126;20.664;2023-09-08T17:05:36;15.50;;;5.87;;
55758;SDS011;41678;52.126;20.664;2023-09-08T17:10:55;10.57;;;5.75;;
55758;SDS011;41678;52.126;20.664;2023-09-08T17:16:14;10.60;;;5.68;;
55758;SDS011;41678;52.126;20.664;2023-09-08T17:21:34;18.10;;;6.05;;
55758;SDS011;41678;52.126;20.664;2023-09-08T17:26:54;16.60;;;6.78;;
55758;SDS011;41678;52.126;20.664;2023-09-08T17:37:34;12.38;;;6.47;;
55758;SDS011;41678;52.126;20.664;2023-09-08T17:42:54;20.48;;;6.35;;
55758;SDS011;41678;52.126;20.664;2023-09-08T17:48:15;17.35;;;7.15;;
55758;SDS011;41678;52.126;20.664;2023-09-08T17:53:34;18.63;;;7.32;;
55758;SDS011;41678;52.126;20.664;2023-09-08T17:58:55;22.52;;;7.70;;
55758;SDS011;41678;52.126;20.664;2023-09-08T18:04:14;19.08;;;7.55;;
55758;SDS011;41678;52.126;20.664;2023-09-08T18:09:34;16.17;;;8.45;;
55758;SDS011;41678;52.126;20.664;2023-09-08T18:14:55;17.70;;;7.57;;
55758;SDS011;41678;52.126;20.664;2023-09-08T18:20:15;25.30;;;8.05;;
55758;SDS011;41678;52.126;20.664;2023-09-08T18:25:35;22.73;;;7.85;;
55758;SDS011;41678;52.126;20.664;2023-09-08T18:30:54;20.70;;;8.38;;
55758;SDS011;41678;52.126;20.664;2023-09-08T18:36:13;16.95;;;8.18;;
55758;SDS011;41678;52.126;20.664;2023-09-08T18:41:33;19.30;;;7.93;;
55758;SDS011;41678;52.126;20.664;2023-09-08T18:46:53;19.83;;;8.63;;
55758;SDS011;41678;52.126;20.664;2023-09-08T18:52:12;15.65;;;8.00;;
55758;SDS011;41678;52.126;20.664;2023-09-08T18:57:31;23.88;;;8.60;;
55758;SDS011;41678;52.126;20.664;2023-09-08T19:02:51;21.17;;;9.15;;
55758;SDS011;41678;52.126;20.664;2023-09-08T19:08:10;23.25;;;8.82;;
55758;SDS011;41678;52.126;20.664;2023-09-08T19:13:30;13.85;;;8.50;;
55758;SDS011;41678;52.126;20.664;2023-09-08T19:18:49;15.88;;;9.23;;
55758;SDS011;41678;52.126;20.664;2023-09-08T19:24:08;23.85;;;8.88;;
55758;SDS011;41678;52.126;20.664;2023-09-08T19:29:28;24.25;;;9.23;;
55758;SDS011;41678;52.126;20.664;2023-09-08T19:34:49;23.70;;;9.73;;
55758;SDS011;41678;52.126;20.664;2023-09-08T19:40:09;24.30;;;9.50;;
55758;SDS011;41678;52.126;20.664;2023-09-08T19:45:29;25.00;;;9.48;;
55758;SDS011;41678;52.126;20.664;2023-09-08T19:50:50;20.52;;;10.00;;
55758;SDS011;41678;52.126;20.664;2023-09-08T19:56:10;21.85;;;10.77;;
55758;SDS011;41678;52.126;20.664;2023-09-08T20:01:29;18.17;;;10.52;;
55758;SDS011;41678;52.126;20.664;2023-09-08T20:06:49;18.13;;;10.23;;
55758;SDS011;41678;52.126;20.664;2023-09-08T20:12:11;20.58;;;10.38;;
55758;SDS011;41678;52.126;20.664;2023-09-08T20:17:31;21.00;;;10.43;;
55758;SDS011;41678;52.126;20.664;2023-09-08T20:22:50;18.27;;;10.30;;
55758;SDS011;41678;52.126;20.664;2023-09-08T20:28:10;25.75;;;11.00;;
55758;SDS011;41678;52.126;20.664;2023-09-08T20:33:30;20.27;;;12.20;;
55758;SDS011;41678;52.126;20.664;2023-09-08T20:38:49;18.05;;;10.38;;
55758;SDS011;41678;52.126;20.664;2023-09-08T20:44:08;20.38;;;11.20;;
55758;SDS011;41678;52.126;20.664;2023-09-08T20:49:28;29.40;;;10.85;;
55758;SDS011;41678;52.126;20.664;2023-09-08T20:54:47;22.05;;;10.02;;
55758;SDS011;41678;52.126;20.664;2023-09-08T21:00:07;20.13;;;11.23;;
55758;SDS011;41678;52.126;20.664;2023-09-08T21:05:26;21.00;;;10.90;;
55758;SDS011;41678;52.126;20.664;2023-09-08T21:10:46;20.23;;;11.10;;
55758;SDS011;41678;52.126;20.664;2023-09-08T21:16:06;21.97;;;12.23;;
55758;SDS011;41678;52.126;20.664;2023-09-08T21:21:26;24.80;;;12.60;;
55758;SDS011;41678;52.126;20.664;2023-09-08T21:26:45;17.85;;;11.13;;
55758;SDS011;41678;52.126;20.664;2023-09-08T21:32:05;26.73;;;12.20;;
55758;SDS011;41678;52.126;20.664;2023-09-08T21:37:24;23.75;;;12.38;;
55758;SDS011;41678;52.126;20.664;2023-09-08T21:42:44;25.25;;;12.93;;
55758;SDS011;41678;52.126;20.664;2023-09-08T21:48:03;22.77;;;13.38;;
55758;SDS011;41678;52.126;20.664;2023-09-08T21:53:23;21.52;;;12.63;;
55758;SDS011;41678;52.126;20.664;2023-09-08T21:58:43;19.73;;;11.90;;
55758;SDS011;41678;52.126;20.664;2023-09-08T22:04:03;20.00;;;12.65;;
55758;SDS011;41678;52.126;20.664;2023-09-08T22:09:23;25.30;;;14.15;;
55758;SDS011;41678;52.126;20.664;2023-09-08T22:14:42;26.88;;;13.80;;
55758;SDS011;41678;52.126;20.664;2023-09-08T22:20:02;24.10;;;14.18;;
55758;SDS011;41678;52.126;20.664;2023-09-08T22:25:32;25.63;;;14.32;;
55758;SDS011;41678;52.126;20.664;2023-09-08T22:30:52;24.60;;;15.15;;
55758;SDS011;41678;52.126;20.664;2023-09-08T22:36:12;27.25;;;15.65;;
55758;SDS011;41678;52.126;20.664;2023-09-08T22:41:31;34.25;;;16.58;;
55758;SDS011;41678;52.126;20.664;2023-09-08T22:46:51;29.65;;;17.38;;
55758;SDS011;41678;52.126;20.664;2023-09-08T22:52:10;28.27;;;17.23;;
55758;SDS011;41678;52.126;20.664;2023-09-08T22:57:30;31.13;;;19.23;;
55758;SDS011;41678;52.126;20.664;2023-09-08T23:02:49;32.20;;;20.60;;
55758;SDS011;41678;52.126;20.664;2023-09-08T23:08:08;34.90;;;19.23;;
55758;SDS011;41678;52.126;20.664;2023-09-08T23:13:28;30.55;;;19.15;;
55758;SDS011;41678;52.126;20.664;2023-09-08T23:18:47;31.33;;;18.17;;
55758;SDS011;41678;52.126;20.664;2023-09-08T23:24:07;28.67;;;18.20;;
55758;SDS011;41678;52.126;20.664;2023-09-08T23:29:27;30.27;;;18.15;;
55758;SDS011;41678;52.126;20.664;2023-09-08T23:34:46;30.65;;;17.17;;
55758;SDS011;41678;52.126;20.664;2023-09-08T23:40:06;35.90;;;17.70;;
55758;SDS011;41678;52.126;20.664;2023-09-08T23:45:27;34.00;;;19.30;;
55758;SDS011;41678;52.126;20.664;2023-09-08T23:50:48;33.50;;;17.45;;
55758;SDS011;41678;52.126;20.664;2023-09-08T23:56:08;28.33;;;17.17;;
